sensor_id;sensor_type;location;lat;lon;timestamp;P1;durP1;ratioP1;P2;durP2;ratioP2
63114;SDS011;49208;50.874;6.466;2023-05-10T06:02:13;24.57;;;9.70;;
63114;SDS011;49208;50.874;6.466;2023-05-10T06:04:39;19.40;;;9.60;;
63114;SDS011;49208;50.874;6.466;2023-05-10T06:07:04;22.02;;;10.57;;
63114;SDS011;49208;50.874;6.466;2023-05-10T06:09:30;20.80;;;10.27;;
63114;SDS011;49208;50.874;6.466;2023-05-10T06:11:55;22.77;;;9.90;;
63114;SDS011;49208;50.874;6.466;2023-05-10T06:14:21;23.25;;;10.18;;
63114;SDS011;49208;50.874;6.466;2023-05-10T06:16:46;24.50;;;9.70;;
63114;SDS011;49208;50.874;6.466;2023-05-10T06:19:12;19.30;;;9.57;;
63114;SDS011;49208;50.874;6.466;2023-05-10T06:21:37;20.27;;;9.52;;
63114;SDS011;49208;50.874;6.466;2023-05-10T06:24:03;22.15;;;11.23;;
63114;SDS011;49208;50.874;6.466;2023-05-10T06:26:28;17.88;;;9.52;;
63114;SDS011;49208;50.874;6.466;2023-05-10T06:28:54;21.35;;;10.15;;
63114;SDS011;49208;50.874;6.466;2023-05-10T06:31:19;20.45;;;9.23;;
63114;SDS011;49208;50.874;6.466;2023-05-10T06:33:44;19.33;;;8.18;;
63114;SDS011;49208;50.874;6.466;2023-05-10T06:36:10;20.83;;;9.88;;
63114;SDS011;49208;50.874;6.466;2023-05-10T06:38:36;21.80;;;11.30;;
63114;SDS011;49208;50.874;6.466;2023-05-10T06:41:01;23.60;;;8.57;;
63114;SDS011;49208;50.874;6.466;2023-05-10T06:43:26;17.55;;;7.95;;
63114;SDS011;49208;50.874;6.466;2023-05-10T06:45:53;16.05;;;7.55;;
63114;SDS011;49208;50.874;6.466;2023-05-10T06:48:19;19.05;;;8.57;;
63114;SDS011;49208;50.874;6.466;2023-05-10T06:50:44;18.92;;;9.60;;
63114;SDS011;49208;50.874;6.466;2023-05-10T06:53:09;17.90;;;9.35;;
63114;SDS011;49208;50.874;6.466;2023-05-10T06:55:35;17.52;;;7.78;;
63114;SDS011;49208;50.874;6.466;2023-05-10T06:58:00;17.73;;;8.57;;
63114;SDS011;49208;50.874;6.466;2023-05-10T07:00:27;17.05;;;7.85;;
63114;SDS011;49208;50.874;6.466;2023-05-10T07:02:52;15.15;;;7.30;;
63114;SDS011;49208;50.874;6.466;2023-05-10T07:05:18;15.20;;;7.93;;
63114;SDS011;49208;50.874;6.466;2023-05-10T07:07:43;15.10;;;6.70;;
63114;SDS011;49208;50.874;6.466;2023-05-10T07:10:09;13.88;;;6.13;;
63114;SDS011;49208;50.874;6.466;2023-05-10T07:12:34;13.05;;;6.07;;
63114;SDS011;49208;50.874;6.466;2023-05-10T07:15:00;9.57;;;4.55;;
63114;SDS011;49208;50.874;6.466;2023-05-10T07:17:25;9.95;;;3.97;;
63114;SDS011;49208;50.874;6.466;2023-05-10T07:19:51;7.80;;;3.20;;
63114;SDS011;49208;50.874;6.466;2023-05-10T07:22:16;5.90;;;2.33;;
63114;SDS011;49208;50.874;6.466;2023-05-10T07:24:42;3.05;;;1.45;;
63114;SDS011;49208;50.874;6.466;2023-05-10T07:27:08;4.47;;;1.80;;
63114;SDS011;49208;50.874;6.466;2023-05-10T07:29:34;3.60;;;1.52;;
63114;SDS011;49208;50.874;6.466;2023-05-10T07:31:59;4.63;;;1.65;;
63114;SDS011;49208;50.874;6.466;2023-05-10T07:34:25;3.65;;;1.77;;
63114;SDS011;49208;50.874;6.466;2023-05-10T07:36:50;4.78;;;2.15;;
63114;SDS011;49208;50.874;6.466;2023-05-10T07:39:16;4.18;;;1.60;;
63114;SDS011;49208;50.874;6.466;2023-05-10T07:41:42;5.70;;;1.52;;
63114;SDS011;49208;50.874;6.466;2023-05-10T07:44:07;5.43;;;1.60;;
63114;SDS011;49208;50.874;6.466;2023-05-10T07:46:33;5.93;;;2.10;;
63114;SDS011;49208;50.874;6.466;2023-05-10T07:48:59;4.20;;;1.42;;
63114;SDS011;49208;50.874;6.466;2023-05-10T07:51:24;3.60;;;1.70;;
63114;SDS011;49208;50.874;6.466;2023-05-10T07:53:49;3.95;;;1.60;;
63114;SDS011;49208;50.874;6.466;2023-05-10T07:56:22;3.88;;;1.73;;
63114;SDS011;49208;50.874;6.466;2023-05-10T07:58:55;6.93;;;2.20;;
63114;SDS011;49208;50.874;6.466;2023-05-10T08:01:21;4.70;;;2.20;;
63114;SDS011;49208;50.874;6.466;2023-05-10T08:03:47;5.97;;;2.70;;
63114;SDS011;49208;50.874;6.466;2023-05-10T08:06:13;5.72;;;2.83;;
63114;SDS011;49208;50.874;6.466;2023-05-10T08:08:40;5.32;;;2.33;;
63114;SDS011;49208;50.874;6.466;2023-05-10T08:11:05;5.20;;;2.50;;
63114;SDS011;49208;50.874;6.466;2023-05-10T08:13:31;6.95;;;2.97;;
63114;SDS011;49208;50.874;6.466;2023-05-10T08:15:56;6.45;;;3.38;;
63114;SDS011;49208;50.874;6.466;2023-05-10T08:18:22;6.38;;;3.55;;
63114;SDS011;49208;50.874;6.466;2023-05-10T08:20:47;6.70;;;3.45;;
63114;SDS011;49208;50.874;6.466;2023-05-10T08:23:13;12.90;;;6.35;;
63114;SDS011;49208;50.874;6.466;2023-05-10T08:25:38;18.58;;;9.13;;
63114;SDS011;49208;50.874;6.466;2023-05-10T08:28:04;21.95;;;9.07;;
63114;SDS011;49208;50.874;6.466;2023-05-10T08:30:29;17.75;;;9.35;;
63114;SDS011;49208;50.874;6.466;2023-05-10T08:32:55;18.52;;;9.20;;
63114;SDS011;49208;50.874;6.466;2023-05-10T08:35:20;20.42;;;9.30;;
63114;SDS011;49208;50.874;6.466;2023-05-10T08:37:45;19.33;;;9.05;;
63114;SDS011;49208;50.874;6.466;2023-05-10T08:40:11;18.20;;;8.15;;
63114;SDS011;49208;50.874;6.466;2023-05-10T08:42:39;16.88;;;8.70;;
63114;SDS011;49208;50.874;6.466;2023-05-10T08:45:07;23.55;;;9.88;;
63114;SDS011;49208;50.874;6.466;2023-05-10T08:47:34;18.73;;;9.43;;
63114;SDS011;49208;50.874;6.466;2023-05-10T08:50:02;17.10;;;8.50;;
63114;SDS011;49208;50.874;6.466;2023-05-10T08:52:28;16.48;;;8.90;;
63114;SDS011;49208;50.874;6.466;2023-05-10T08:54:55;19.92;;;9.68;;
63114;SDS011;49208;50.874;6.466;2023-05-10T08:57:21;17.27;;;9.43;;
63114;SDS011;49208;50.874;6.466;2023-05-10T08:59:47;18.25;;;9.10;;
63114;SDS011;49208;50.874;6.466;2023-05-10T09:02:13;17.83;;;9.10;;
63114;SDS011;49208;50.874;6.466;2023-05-10T09:04:38;19.63;;;8.90;;
63114;SDS011;49208;50.874;6.466;2023-05-10T09:07:04;21.38;;;10.48;;
63114;SDS011;49208;50.874;6.466;2023-05-10T09:09:30;22.27;;;10.90;;
63114;SDS011;49208;50.874;6.466;2023-05-10T09:11:56;23.60;;;11.77;;
63114;SDS011;49208;50.874;6.466;2023-05-10T09:14:23;23.05;;;11.45;;
63114;SDS011;49208;50.874;6.466;2023-05-10T09:16:49;22.98;;;11.27;;
63114;SDS011;49208;50.874;6.466;2023-05-10T09:19:15;22.67;;;11.15;;
63114;SDS011;49208;50.874;6.466;2023-05-10T09:21:40;22.00;;;11.88;;
63114;SDS011;49208;50.874;6.466;2023-05-10T09:24:06;23.08;;;10.82;;
63114;SDS011;49208;50.874;6.466;2023-05-10T09:26:33;22.88;;;9.85;;
63114;SDS011;49208;50.874;6.466;2023-05-10T09:29:00;20.00;;;9.27;;
63114;SDS011;49208;50.874;6.466;2023-05-10T09:31:43;13.38;;;7.57;;
63114;SDS011;49208;50.874;6.466;2023-05-10T09:34:11;12.30;;;6.55;;
63114;SDS011;49208;50.874;6.466;2023-05-10T09:36:53;11.70;;;6.07;;
63114;SDS011;49208;50.874;6.466;2023-05-10T09:39:20;10.88;;;5.82;;
63114;SDS011;49208;50.874;6.466;2023-05-10T09:41:46;8.68;;;4.93;;
63114;SDS011;49208;50.874;6.466;2023-05-10T09:44:12;8.65;;;4.63;;
63114;SDS011;49208;50.874;6.466;2023-05-10T09:46:42;9.10;;;4.30;;
63114;SDS011;49208;50.874;6.466;2023-05-10T09:49:08;8.07;;;4.22;;
63114;SDS011;49208;50.874;6.466;2023-05-10T09:51:34;8.18;;;3.60;;
63114;SDS011;49208;50.874;6.466;2023-05-10T09:54:18;7.22;;;2.85;;
63114;SDS011;49208;50.874;6.466;2023-05-10T09:56:43;6.60;;;2.60;;
63114;SDS011;49208;50.874;6.466;2023-05-10T09:59:10;5.13;;;2.40;;
63114;SDS011;49208;50.874;6.466;2023-05-10T10:01:36;6.60;;;2.97;;
63114;SDS011;49208;50.874;6.466;2023-05-10T10:04:03;5.55;;;2.85;;
63114;SDS011;49208;50.874;6.466;2023-05-10T10:06:34;6.80;;;3.78;;
63114;SDS011;49208;50.874;6.466;2023-05-10T10:09:00;7.28;;;4.13;;
63114;SDS011;49208;50.874;6.466;2023-05-10T10:11:26;9.45;;;4.00;;
63114;SDS011;49208;50.874;6.466;2023-05-10T10:13:52;8.90;;;4.35;;
63114;SDS011;49208;50.874;6.466;2023-05-10T10:16:18;11.98;;;5.35;;
63114;SDS011;49208;50.874;6.466;2023-05-10T10:18:45;9.93;;;4.80;;
63114;SDS011;49208;50.874;6.466;2023-05-10T10:21:10;6.03;;;3.15;;
63114;SDS011;49208;50.874;6.466;2023-05-10T10:23:38;9.32;;;4.28;;
63114;SDS011;49208;50.874;6.466;2023-05-10T10:26:03;6.57;;;3.42;;
63114;SDS011;49208;50.874;6.466;2023-05-10T10:28:39;7.60;;;3.30;;
63114;SDS011;49208;50.874;6.466;2023-05-10T10:31:26;7.00;;;3.15;;
63114;SDS011;49208;50.874;6.466;2023-05-10T10:36:30;5.43;;;2.47;;
63114;SDS011;49208;50.874;6.466;2023-05-10T10:38:57;6.65;;;2.90;;
63114;SDS011;49208;50.874;6.466;2023-05-10T10:41:34;5.15;;;2.60;;
63114;SDS011;49208;50.874;6.466;2023-05-10T10:47:03;5.45;;;2.72;;
63114;SDS011;49208;50.874;6.466;2023-05-10T10:49:31;5.03;;;2.58;;
63114;SDS011;49208;50.874;6.466;2023-05-10T10:57:31;4.85;;;2.38;;
63114;SDS011;49208;50.874;6.466;2023-05-10T11:00:17;3.95;;;2.10;;
63114;SDS011;49208;50.874;6.466;2023-05-10T11:02:44;4.47;;;2.33;;
63114;SDS011;49208;50.874;6.466;2023-05-10T11:05:25;4.05;;;1.65;;
63114;SDS011;49208;50.874;6.466;2023-05-10T11:07:59;4.85;;;1.90;;
63114;SDS011;49208;50.874;6.466;2023-05-10T11:10:25;3.05;;;1.52;;
63114;SDS011;49208;50.874;6.466;2023-05-10T11:13:05;3.58;;;1.77;;
63114;SDS011;49208;50.874;6.466;2023-05-10T11:15:32;3.67;;;1.85;;
63114;SDS011;49208;50.874;6.466;2023-05-10T11:17:59;8.20;;;1.90;;
63114;SDS011;49208;50.874;6.466;2023-05-10T11:20:27;4.90;;;1.85;;
63114;SDS011;49208;50.874;6.466;2023-05-10T11:22:58;4.07;;;1.67;;
63114;SDS011;49208;50.874;6.466;2023-05-10T11:25:40;2.10;;;1.08;;
63114;SDS011;49208;50.874;6.466;2023-05-10T11:28:09;3.15;;;1.35;;
63114;SDS011;49208;50.874;6.466;2023-05-10T11:30:38;2.40;;;1.00;;
63114;SDS011;49208;50.874;6.466;2023-05-10T11:33:05;2.28;;;0.88;;
63114;SDS011;49208;50.874;6.466;2023-05-10T11:35:31;1.70;;;0.85;;
63114;SDS011;49208;50.874;6.466;2023-05-10T11:38:02;2.22;;;0.82;;
63114;SDS011;49208;50.874;6.466;2023-05-10T11:40:30;2.10;;;0.90;;
63114;SDS011;49208;50.874;6.466;2023-05-10T11:42:55;2.95;;;0.82;;
63114;SDS011;49208;50.874;6.466;2023-05-10T11:45:23;2.20;;;1.20;;
63114;SDS011;49208;50.874;6.466;2023-05-10T11:47:49;4.03;;;1.08;;
63114;SDS011;49208;50.874;6.466;2023-05-10T11:50:15;2.80;;;1.10;;
63114;SDS011;49208;50.874;6.466;2023-05-10T11:52:40;3.28;;;1.23;;
63114;SDS011;49208;50.874;6.466;2023-05-10T11:55:06;2.67;;;1.35;;
63114;SDS011;49208;50.874;6.466;2023-05-10T11:57:32;2.80;;;1.40;;
63114;SDS011;49208;50.874;6.466;2023-05-10T11:59:57;2.50;;;1.27;;
63114;SDS011;49208;50.874;6.466;2023-05-10T12:02:23;2.72;;;1.30;;
63114;SDS011;49208;50.874;6.466;2023-05-10T12:04:49;3.40;;;1.45;;
63114;SDS011;49208;50.874;6.466;2023-05-10T12:07:16;3.35;;;1.20;;
63114;SDS011;49208;50.874;6.466;2023-05-10T12:09:44;2.88;;;1.83;;
63114;SDS011;49208;50.874;6.466;2023-05-10T12:12:47;2.92;;;1.33;;
63114;SDS011;49208;50.874;6.466;2023-05-10T12:15:22;3.05;;;1.42;;
63114;SDS011;49208;50.874;6.466;2023-05-10T12:17:49;2.95;;;1.45;;
63114;SDS011;49208;50.874;6.466;2023-05-10T12:20:19;3.85;;;1.30;;
63114;SDS011;49208;50.874;6.466;2023-05-10T12:22:46;5.53;;;0.93;;
63114;SDS011;49208;50.874;6.466;2023-05-10T12:25:14;4.00;;;1.10;;
63114;SDS011;49208;50.874;6.466;2023-05-10T12:27:40;2.25;;;1.10;;
63114;SDS011;49208;50.874;6.466;2023-05-10T12:30:06;1.92;;;0.80;;
63114;SDS011;49208;50.874;6.466;2023-05-10T12:32:41;2.45;;;1.27;;
63114;SDS011;49208;50.874;6.466;2023-05-10T12:35:07;2.30;;;1.10;;
63114;SDS011;49208;50.874;6.466;2023-05-10T12:37:33;3.20;;;1.45;;
63114;SDS011;49208;50.874;6.466;2023-05-10T12:40:03;3.10;;;1.35;;
63114;SDS011;49208;50.874;6.466;2023-05-10T12:42:30;3.00;;;1.25;;
63114;SDS011;49208;50.874;6.466;2023-05-10T12:44:56;2.17;;;1.27;;
63114;SDS011;49208;50.874;6.466;2023-05-10T12:47:22;3.50;;;1.83;;
63114;SDS011;49208;50.874;6.466;2023-05-10T12:49:47;3.83;;;1.65;;
63114;SDS011;49208;50.874;6.466;2023-05-10T12:52:13;2.60;;;1.30;;
63114;SDS011;49208;50.874;6.466;2023-05-10T12:54:38;2.28;;;1.10;;
63114;SDS011;49208;50.874;6.466;2023-05-10T12:57:03;2.50;;;1.30;;
63114;SDS011;49208;50.874;6.466;2023-05-10T12:59:29;3.70;;;2.25;;
63114;SDS011;49208;50.874;6.466;2023-05-10T13:01:54;2.85;;;1.30;;
63114;SDS011;49208;50.874;6.466;2023-05-10T13:04:20;3.25;;;1.52;;
63114;SDS011;49208;50.874;6.466;2023-05-10T13:06:45;2.67;;;1.23;;
63114;SDS011;49208;50.874;6.466;2023-05-10T13:09:10;3.63;;;1.48;;
63114;SDS011;49208;50.874;6.466;2023-05-10T13:11:36;3.60;;;1.45;;
63114;SDS011;49208;50.874;6.466;2023-05-10T13:14:01;4.28;;;1.60;;
63114;SDS011;49208;50.874;6.466;2023-05-10T13:16:28;5.70;;;2.10;;
63114;SDS011;49208;50.874;6.466;2023-05-10T13:18:53;3.67;;;2.03;;
63114;SDS011;49208;50.874;6.466;2023-05-10T13:21:19;6.35;;;2.47;;
63114;SDS011;49208;50.874;6.466;2023-05-10T13:23:44;4.72;;;2.03;;
63114;SDS011;49208;50.874;6.466;2023-05-10T13:26:09;5.60;;;3.20;;
63114;SDS011;49208;50.874;6.466;2023-05-10T13:28:35;5.85;;;2.60;;
63114;SDS011;49208;50.874;6.466;2023-05-10T13:31:00;5.88;;;2.40;;
63114;SDS011;49208;50.874;6.466;2023-05-10T13:33:25;6.68;;;2.65;;
63114;SDS011;49208;50.874;6.466;2023-05-10T13:35:51;5.22;;;2.72;;
63114;SDS011;49208;50.874;6.466;2023-05-10T13:38:16;6.47;;;2.72;;
63114;SDS011;49208;50.874;6.466;2023-05-10T13:40:42;5.03;;;2.50;;
63114;SDS011;49208;50.874;6.466;2023-05-10T13:43:07;5.40;;;2.25;;
63114;SDS011;49208;50.874;6.466;2023-05-10T13:45:32;5.22;;;2.63;;
63114;SDS011;49208;50.874;6.466;2023-05-10T13:47:58;5.55;;;2.50;;
63114;SDS011;49208;50.874;6.466;2023-05-10T13:50:24;8.35;;;2.75;;
63114;SDS011;49208;50.874;6.466;2023-05-10T13:52:49;6.45;;;2.45;;
63114;SDS011;49208;50.874;6.466;2023-05-10T13:55:15;5.20;;;2.40;;
63114;SDS011;49208;50.874;6.466;2023-05-10T13:57:40;4.13;;;2.22;;
63114;SDS011;49208;50.874;6.466;2023-05-10T14:00:07;3.70;;;1.77;;
63114;SDS011;49208;50.874;6.466;2023-05-10T14:02:33;5.00;;;2.30;;
63114;SDS011;49208;50.874;6.466;2023-05-10T14:04:59;6.82;;;2.53;;
63114;SDS011;49208;50.874;6.466;2023-05-10T14:07:25;6.40;;;2.10;;
63114;SDS011;49208;50.874;6.466;2023-05-10T14:09:50;4.47;;;2.30;;
63114;SDS011;49208;50.874;6.466;2023-05-10T14:12:16;6.35;;;2.28;;
63114;SDS011;49208;50.874;6.466;2023-05-10T14:14:41;4.40;;;2.22;;
63114;SDS011;49208;50.874;6.466;2023-05-10T14:17:08;4.93;;;2.25;;
63114;SDS011;49208;50.874;6.466;2023-05-10T14:19:33;6.07;;;2.20;;
63114;SDS011;49208;50.874;6.466;2023-05-10T14:21:59;5.85;;;1.88;;
63114;SDS011;49208;50.874;6.466;2023-05-10T14:24:24;4.40;;;1.58;;
63114;SDS011;49208;50.874;6.466;2023-05-10T14:26:50;3.90;;;1.90;;
63114;SDS011;49208;50.874;6.466;2023-05-10T14:29:18;7.18;;;2.42;;
63114;SDS011;49208;50.874;6.466;2023-05-10T14:31:44;4.25;;;1.77;;
63114;SDS011;49208;50.874;6.466;2023-05-10T14:34:09;3.80;;;1.80;;
63114;SDS011;49208;50.874;6.466;2023-05-10T14:36:35;5.15;;;2.28;;
63114;SDS011;49208;50.874;6.466;2023-05-10T14:39:00;5.63;;;2.00;;
63114;SDS011;49208;50.874;6.466;2023-05-10T14:41:25;4.10;;;2.10;;
63114;SDS011;49208;50.874;6.466;2023-05-10T14:43:51;4.53;;;2.10;;
63114;SDS011;49208;50.874;6.466;2023-05-10T14:46:16;5.55;;;2.10;;
63114;SDS011;49208;50.874;6.466;2023-05-10T14:48:41;4.63;;;2.53;;
63114;SDS011;49208;50.874;6.466;2023-05-10T14:51:07;7.00;;;2.63;;
63114;SDS011;49208;50.874;6.466;2023-05-10T14:53:32;5.82;;;2.40;;
63114;SDS011;49208;50.874;6.466;2023-05-10T14:55:58;4.25;;;2.13;;
63114;SDS011;49208;50.874;6.466;2023-05-10T14:58:26;8.02;;;2.85;;
63114;SDS011;49208;50.874;6.466;2023-05-10T15:00:51;5.97;;;3.10;;
63114;SDS011;49208;50.874;6.466;2023-05-10T15:03:17;7.63;;;2.40;;
63114;SDS011;49208;50.874;6.466;2023-05-10T15:05:42;5.32;;;3.05;;
63114;SDS011;49208;50.874;6.466;2023-05-10T15:08:07;4.75;;;2.40;;
63114;SDS011;49208;50.874;6.466;2023-05-10T15:10:34;6.45;;;3.30;;
63114;SDS011;49208;50.874;6.466;2023-05-10T15:13:00;7.38;;;3.50;;
63114;SDS011;49208;50.874;6.466;2023-05-10T15:15:25;7.60;;;3.88;;
63114;SDS011;49208;50.874;6.466;2023-05-10T15:17:51;10.00;;;4.05;;
63114;SDS011;49208;50.874;6.466;2023-05-10T15:20:16;9.27;;;3.97;;
63114;SDS011;49208;50.874;6.466;2023-05-10T15:22:42;7.10;;;3.60;;
63114;SDS011;49208;50.874;6.466;2023-05-10T15:25:07;6.65;;;3.20;;
63114;SDS011;49208;50.874;6.466;2023-05-10T15:27:33;6.40;;;3.47;;
63114;SDS011;49208;50.874;6.466;2023-05-10T15:29:58;5.22;;;2.92;;
63114;SDS011;49208;50.874;6.466;2023-05-10T15:32:24;6.68;;;3.22;;
63114;SDS011;49208;50.874;6.466;2023-05-10T15:34:50;7.55;;;3.25;;
63114;SDS011;49208;50.874;6.466;2023-05-10T15:37:15;5.10;;;2.33;;
63114;SDS011;49208;50.874;6.466;2023-05-10T15:39:40;5.50;;;2.10;;
63114;SDS011;49208;50.874;6.466;2023-05-10T15:42:06;5.85;;;2.58;;
63114;SDS011;49208;50.874;6.466;2023-05-10T15:44:31;4.32;;;2.10;;
63114;SDS011;49208;50.874;6.466;2023-05-10T15:46:58;7.32;;;2.53;;
63114;SDS011;49208;50.874;6.466;2023-05-10T15:49:23;4.80;;;1.95;;
63114;SDS011;49208;50.874;6.466;2023-05-10T15:51:49;4.80;;;1.83;;
63114;SDS011;49208;50.874;6.466;2023-05-10T15:54:14;5.18;;;1.95;;
63114;SDS011;49208;50.874;6.466;2023-05-10T15:56:40;4.72;;;2.25;;
63114;SDS011;49208;50.874;6.466;2023-05-10T15:59:05;5.07;;;1.63;;
63114;SDS011;49208;50.874;6.466;2023-05-10T16:01:32;4.60;;;1.88;;
63114;SDS011;49208;50.874;6.466;2023-05-10T16:03:59;4.88;;;1.60;;
63114;SDS011;49208;50.874;6.466;2023-05-10T16:06:25;3.60;;;0.90;;
63114;SDS011;49208;50.874;6.466;2023-05-10T16:08:50;3.25;;;1.17;;
63114;SDS011;49208;50.874;6.466;2023-05-10T16:11:15;3.08;;;1.13;;
63114;SDS011;49208;50.874;6.466;2023-05-10T16:13:41;3.83;;;1.23;;
63114;SDS011;49208;50.874;6.466;2023-05-10T16:16:06;4.00;;;1.50;;
63114;SDS011;49208;50.874;6.466;2023-05-10T16:18:33;2.83;;;1.15;;
63114;SDS011;49208;50.874;6.466;2023-05-10T16:20:58;2.72;;;1.15;;
63114;SDS011;49208;50.874;6.466;2023-05-10T16:23:25;2.38;;;0.85;;
63114;SDS011;49208;50.874;6.466;2023-05-10T16:25:52;3.22;;;1.20;;
63114;SDS011;49208;50.874;6.466;2023-05-10T16:28:17;5.35;;;1.50;;
63114;SDS011;49208;50.874;6.466;2023-05-10T16:30:45;2.03;;;0.88;;
63114;SDS011;49208;50.874;6.466;2023-05-10T16:33:11;4.43;;;1.38;;
63114;SDS011;49208;50.874;6.466;2023-05-10T16:35:37;2.13;;;1.00;;
63114;SDS011;49208;50.874;6.466;2023-05-10T16:38:03;3.42;;;1.25;;
63114;SDS011;49208;50.874;6.466;2023-05-10T16:40:28;3.88;;;1.45;;
63114;SDS011;49208;50.874;6.466;2023-05-10T16:42:54;3.53;;;1.50;;
63114;SDS011;49208;50.874;6.466;2023-05-10T16:45:19;3.50;;;1.50;;
63114;SDS011;49208;50.874;6.466;2023-05-10T16:47:44;3.35;;;1.10;;
63114;SDS011;49208;50.874;6.466;2023-05-10T16:50:10;2.72;;;1.30;;
63114;SDS011;49208;50.874;6.466;2023-05-10T16:52:36;3.08;;;1.20;;
63114;SDS011;49208;50.874;6.466;2023-05-10T16:55:01;2.45;;;1.27;;
63114;SDS011;49208;50.874;6.466;2023-05-10T16:57:28;4.82;;;1.20;;
63114;SDS011;49208;50.874;6.466;2023-05-10T16:59:54;3.22;;;1.40;;
63114;SDS011;49208;50.874;6.466;2023-05-10T17:02:20;3.50;;;1.10;;
63114;SDS011;49208;50.874;6.466;2023-05-10T17:04:46;2.50;;;1.20;;
63114;SDS011;49208;50.874;6.466;2023-05-10T17:07:11;2.22;;;0.88;;
63114;SDS011;49208;50.874;6.466;2023-05-10T17:09:37;3.28;;;0.95;;
63114;SDS011;49208;50.874;6.466;2023-05-10T17:12:03;3.40;;;0.90;;
63114;SDS011;49208;50.874;6.466;2023-05-10T17:14:29;2.75;;;1.15;;
63114;SDS011;49208;50.874;6.466;2023-05-10T17:16:54;2.63;;;0.95;;
63114;SDS011;49208;50.874;6.466;2023-05-10T17:19:20;2.90;;;1.48;;
63114;SDS011;49208;50.874;6.466;2023-05-10T17:21:45;5.05;;;1.75;;
63114;SDS011;49208;50.874;6.466;2023-05-10T17:24:11;5.53;;;1.85;;
63114;SDS011;49208;50.874;6.466;2023-05-10T17:26:36;2.85;;;1.30;;
63114;SDS011;49208;50.874;6.466;2023-05-10T17:29:02;4.70;;;1.50;;
63114;SDS011;49208;50.874;6.466;2023-05-10T17:31:27;5.45;;;1.50;;
63114;SDS011;49208;50.874;6.466;2023-05-10T17:33:53;3.95;;;1.63;;
63114;SDS011;49208;50.874;6.466;2023-05-10T17:36:19;5.00;;;2.08;;
63114;SDS011;49208;50.874;6.466;2023-05-10T17:38:45;4.32;;;2.20;;
63114;SDS011;49208;50.874;6.466;2023-05-10T17:41:10;6.50;;;1.92;;
63114;SDS011;49208;50.874;6.466;2023-05-10T17:43:36;4.57;;;1.60;;
63114;SDS011;49208;50.874;6.466;2023-05-10T17:46:01;3.88;;;1.70;;
63114;SDS011;49208;50.874;6.466;2023-05-10T17:48:27;5.30;;;1.70;;
63114;SDS011;49208;50.874;6.466;2023-05-10T17:50:52;5.55;;;1.83;;
63114;SDS011;49208;50.874;6.466;2023-05-10T17:53:18;5.20;;;1.92;;
63114;SDS011;49208;50.874;6.466;2023-05-10T17:55:43;4.50;;;1.63;;
63114;SDS011;49208;50.874;6.466;2023-05-10T17:58:09;5.05;;;1.58;;
63114;SDS011;49208;50.874;6.466;2023-05-10T18:00:35;6.15;;;2.17;;
63114;SDS011;49208;50.874;6.466;2023-05-10T18:03:01;5.10;;;1.70;;
63114;SDS011;49208;50.874;6.466;2023-05-10T18:05:27;5.75;;;1.52;;
63114;SDS011;49208;50.874;6.466;2023-05-10T18:07:53;3.53;;;1.65;;
63114;SDS011;49208;50.874;6.466;2023-05-10T18:10:18;3.45;;;1.48;;
63114;SDS011;49208;50.874;6.466;2023-05-10T18:12:43;3.60;;;1.60;;
63114;SDS011;49208;50.874;6.466;2023-05-10T18:15:09;5.07;;;1.13;;
63114;SDS011;49208;50.874;6.466;2023-05-10T18:17:34;3.08;;;1.10;;
63114;SDS011;49208;50.874;6.466;2023-05-10T18:20:00;4.50;;;1.55;;
63114;SDS011;49208;50.874;6.466;2023-05-10T18:22:26;2.80;;;1.08;;
63114;SDS011;49208;50.874;6.466;2023-05-10T18:24:51;3.78;;;1.05;;
63114;SDS011;49208;50.874;6.466;2023-05-10T18:27:17;3.42;;;1.10;;
63114;SDS011;49208;50.874;6.466;2023-05-10T18:29:43;2.42;;;1.00;;
63114;SDS011;49208;50.874;6.466;2023-05-10T18:32:08;3.30;;;1.05;;
63114;SDS011;49208;50.874;6.466;2023-05-10T18:34:34;2.05;;;0.82;;
63114;SDS011;49208;50.874;6.466;2023-05-10T18:36:59;3.33;;;1.08;;
63114;SDS011;49208;50.874;6.466;2023-05-10T18:39:24;2.45;;;0.90;;
63114;SDS011;49208;50.874;6.466;2023-05-10T18:41:50;8.52;;;2.20;;
63114;SDS011;49208;50.874;6.466;2023-05-10T18:44:15;4.20;;;1.60;;
63114;SDS011;49208;50.874;6.466;2023-05-10T18:46:42;3.53;;;1.50;;
63114;SDS011;49208;50.874;6.466;2023-05-10T18:49:08;2.72;;;1.13;;
63114;SDS011;49208;50.874;6.466;2023-05-10T18:51:33;4.50;;;1.42;;
63114;SDS011;49208;50.874;6.466;2023-05-10T18:53:58;2.00;;;0.80;;
63114;SDS011;49208;50.874;6.466;2023-05-10T18:56:24;4.72;;;0.90;;
63114;SDS011;49208;50.874;6.466;2023-05-10T18:58:49;2.00;;;0.93;;
63114;SDS011;49208;50.874;6.466;2023-05-10T19:01:15;2.97;;;0.85;;
63114;SDS011;49208;50.874;6.466;2023-05-10T19:03:40;2.83;;;0.95;;
63114;SDS011;49208;50.874;6.466;2023-05-10T19:06:06;6.25;;;1.25;;
63114;SDS011;49208;50.874;6.466;2023-05-10T19:08:31;2.53;;;0.80;;
63114;SDS011;49208;50.874;6.466;2023-05-10T19:10:57;2.47;;;1.23;;
63114;SDS011;49208;50.874;6.466;2023-05-10T19:13:22;1.77;;;0.82;;
63114;SDS011;49208;50.874;6.466;2023-05-10T19:16:09;3.63;;;1.00;;
63114;SDS011;49208;50.874;6.466;2023-05-10T19:18:35;2.67;;;0.95;;
63114;SDS011;49208;50.874;6.466;2023-05-10T19:21:00;2.70;;;1.08;;
63114;SDS011;49208;50.874;6.466;2023-05-10T19:23:30;3.15;;;1.20;;
63114;SDS011;49208;50.874;6.466;2023-05-10T19:25:56;2.63;;;1.20;;
63114;SDS011;49208;50.874;6.466;2023-05-10T19:28:21;3.63;;;1.33;;
63114;SDS011;49208;50.874;6.466;2023-05-10T19:30:49;2.65;;;1.10;;
63114;SDS011;49208;50.874;6.466;2023-05-10T19:33:17;4.53;;;1.52;;
63114;SDS011;49208;50.874;6.466;2023-05-10T19:35:43;3.55;;;1.00;;
63114;SDS011;49208;50.874;6.466;2023-05-10T19:38:09;2.78;;;1.10;;
63114;SDS011;49208;50.874;6.466;2023-05-10T19:40:34;3.33;;;0.98;;
63114;SDS011;49208;50.874;6.466;2023-05-10T19:43:00;3.40;;;1.10;;
63114;SDS011;49208;50.874;6.466;2023-05-10T19:45:26;1.95;;;0.88;;
63114;SDS011;49208;50.874;6.466;2023-05-10T19:47:52;7.55;;;1.17;;
63114;SDS011;49208;50.874;6.466;2023-05-10T19:50:17;2.55;;;1.08;;
63114;SDS011;49208;50.874;6.466;2023-05-10T19:52:43;4.53;;;1.13;;
63114;SDS011;49208;50.874;6.466;2023-05-10T19:55:09;2.55;;;1.08;;
63114;SDS011;49208;50.874;6.466;2023-05-10T19:57:35;2.95;;;1.35;;
63114;SDS011;49208;50.874;6.466;2023-05-10T20:00:01;3.08;;;1.77;;
63114;SDS011;49208;50.874;6.466;2023-05-10T20:02:28;3.80;;;1.40;;
63114;SDS011;49208;50.874;6.466;2023-05-10T20:04:54;3.03;;;1.40;;
63114;SDS011;49208;50.874;6.466;2023-05-10T20:07:19;3.47;;;1.70;;
63114;SDS011;49208;50.874;6.466;2023-05-10T20:09:44;5.43;;;1.77;;
63114;SDS011;49208;50.874;6.466;2023-05-10T20:12:10;2.45;;;1.20;;
63114;SDS011;49208;50.874;6.466;2023-05-10T20:14:35;2.72;;;1.20;;
63114;SDS011;49208;50.874;6.466;2023-05-10T20:17:00;8.38;;;1.63;;
63114;SDS011;49208;50.874;6.466;2023-05-10T20:19:26;3.42;;;1.70;;
63114;SDS011;49208;50.874;6.466;2023-05-10T20:21:51;3.47;;;1.27;;
63114;SDS011;49208;50.874;6.466;2023-05-10T20:24:19;4.00;;;1.70;;
63114;SDS011;49208;50.874;6.466;2023-05-10T20:26:45;3.28;;;1.65;;
63114;SDS011;49208;50.874;6.466;2023-05-10T20:29:10;4.38;;;1.48;;
63114;SDS011;49208;50.874;6.466;2023-05-10T20:31:37;4.60;;;1.80;;
63114;SDS011;49208;50.874;6.466;2023-05-10T20:34:02;3.28;;;1.90;;
63114;SDS011;49208;50.874;6.466;2023-05-10T20:36:28;5.80;;;2.55;;
63114;SDS011;49208;50.874;6.466;2023-05-10T20:38:54;4.50;;;2.20;;
63114;SDS011;49208;50.874;6.466;2023-05-10T20:41:19;3.97;;;2.22;;
63114;SDS011;49208;50.874;6.466;2023-05-10T20:43:45;5.90;;;2.40;;
63114;SDS011;49208;50.874;6.466;2023-05-10T20:46:10;4.80;;;2.60;;
63114;SDS011;49208;50.874;6.466;2023-05-10T20:48:36;3.72;;;1.83;;
63114;SDS011;49208;50.874;6.466;2023-05-10T20:51:02;4.65;;;2.05;;
63114;SDS011;49208;50.874;6.466;2023-05-10T20:53:27;4.60;;;2.30;;